sensor_id;sensor_type;location;lat;lon;timestamp;pressure;altitude;pressure_sealevel;temperature;humidity
64835;BME280;51293;59.296;18.006;2022-09-29T00:01:20;100035.19;;;8.77;92.11
64835;BME280;51293;59.296;18.006;2022-09-29T00:03:45;100030.00;;;8.76;92.32
64835;BME280;51293;59.296;18.006;2022-09-29T00:06:13;100040.59;;;8.77;92.34
64835;BME280;51293;59.296;18.006;2022-09-29T00:08:39;100035.31;;;8.70;93.31
64835;BME280;51293;59.296;18.006;2022-09-29T00:11:09;100034.25;;;8.71;93.45
64835;BME280;51293;59.296;18.006;2022-09-29T00:13:35;100037.28;;;8.75;93.41
64835;BME280;51293;59.296;18.006;2022-09-29T00:16:02;100040.72;;;8.70;93.36
64835;BME280;51293;59.296;18.006;2022-09-29T00:18:28;100041.16;;;8.67;93.47
64835;BME280;51293;59.296;18.006;2022-09-29T00:21:06;100032.84;;;8.69;93.91
64835;BME280;51293;59.296;18.006;2022-09-29T00:23:33;100035.56;;;8.69;94.00
64835;BME280;51293;59.296;18.006;2022-09-29T00:28:32;100038.84;;;8.71;94.53
64835;BME280;51293;59.296;18.006;2022-09-29T00:30:59;100029.09;;;8.70;94.59
64835;BME280;51293;59.296;18.006;2022-09-29T00:33:27;100024.28;;;8.72;94.51
64835;BME280;51293;59.296;18.006;2022-09-29T00:36:06;100027.66;;;8.67;94.62
64835;BME280;51293;59.296;18.006;2022-09-29T00:38:33;100020.53;;;8.61;94.44
64835;BME280;51293;59.296;18.006;2022-09-29T00:40:58;100023.44;;;8.60;94.50
64835;BME280;51293;59.296;18.006;2022-09-29T00:43:51;100026.63;;;8.57;94.52
64835;BME280;51293;59.296;18.006;2022-09-29T00:46:22;100027.78;;;8.49;94.77
64835;BME280;51293;59.296;18.006;2022-09-29T00:48:52;100024.50;;;8.47;94.86
64835;BME280;51293;59.296;18.006;2022-09-29T00:51:18;100025.09;;;8.49;95.22
64835;BME280;51293;59.296;18.006;2022-09-29T00:53:45;100029.66;;;8.49;95.34
64835;BME280;51293;59.296;18.006;2022-09-29T00:56:14;100032.94;;;8.51;95.42
64835;BME280;51293;59.296;18.006;2022-09-29T00:58:50;100028.97;;;8.53;95.81
64835;BME280;51293;59.296;18.006;2022-09-29T01:01:21;100025.56;;;8.58;96.27
64835;BME280;51293;59.296;18.006;2022-09-29T01:03:49;100024.75;;;8.57;96.70
64835;BME280;51293;59.296;18.006;2022-09-29T01:06:21;100021.78;;;8.59;97.30
64835;BME280;51293;59.296;18.006;2022-09-29T01:08:56;100035.28;;;8.59;97.60
64835;BME280;51293;59.296;18.006;2022-09-29T01:11:23;100038.59;;;8.61;97.81
64835;BME280;51293;59.296;18.006;2022-09-29T01:13:49;100035.66;;;8.62;98.08
64835;BME280;51293;59.296;18.006;2022-09-29T01:16:16;100027.56;;;8.62;97.92
64835;BME280;51293;59.296;18.006;2022-09-29T01:18:42;100027.81;;;8.61;97.92
64835;BME280;51293;59.296;18.006;2022-09-29T01:21:15;100035.53;;;8.57;97.66
64835;BME280;51293;59.296;18.006;2022-09-29T01:29:36;100038.38;;;8.62;97.47
64835;BME280;51293;59.296;18.006;2022-09-29T01:32:16;100041.50;;;8.59;97.56
64835;BME280;51293;59.296;18.006;2022-09-29T01:34:57;100036.72;;;8.61;97.69
64835;BME280;51293;59.296;18.006;2022-09-29T01:40:08;100035.53;;;8.57;98.27
64835;BME280;51293;59.296;18.006;2022-09-29T01:42:39;100040.13;;;8.57;98.18
64835;BME280;51293;59.296;18.006;2022-09-29T01:45:33;100030.63;;;8.54;98.18
64835;BME280;51293;59.296;18.006;2022-09-29T01:48:23;100029.19;;;8.52;98.45
64835;BME280;51293;59.296;18.006;2022-09-29T01:50:50;100025.09;;;8.49;98.63
64835;BME280;51293;59.296;18.006;2022-09-29T01:53:27;100020.75;;;8.48;98.32
64835;BME280;51293;59.296;18.006;2022-09-29T01:55:59;100018.72;;;8.43;98.39
64835;BME280;51293;59.296;18.006;2022-09-29T01:58:31;100026.84;;;8.43;97.99
64835;BME280;51293;59.296;18.006;2022-09-29T02:01:00;100018.72;;;8.43;98.36
64835;BME280;51293;59.296;18.006;2022-09-29T02:03:56;100015.34;;;8.36;98.34
64835;BME280;51293;59.296;18.006;2022-09-29T02:06:27;100014.88;;;8.39;98.35
64835;BME280;51293;59.296;18.006;2022-09-29T02:08:58;100009.00;;;8.42;98.57
64835;BME280;51293;59.296;18.006;2022-09-29T02:11:27;100008.41;;;8.40;98.59
64835;BME280;51293;59.296;18.006;2022-09-29T02:13:56;100007.25;;;8.36;99.03
64835;BME280;51293;59.296;18.006;2022-09-29T02:16:48;100008.50;;;8.34;99.16
64835;BME280;51293;59.296;18.006;2022-09-29T02:19:19;100008.16;;;8.30;99.05
64835;BME280;51293;59.296;18.006;2022-09-29T02:21:46;100009.44;;;8.28;99.09
64835;BME280;51293;59.296;18.006;2022-09-29T02:24:12;100005.44;;;8.30;98.78
64835;BME280;51293;59.296;18.006;2022-09-29T02:26:38;100008.16;;;8.30;98.91
64835;BME280;51293;59.296;18.006;2022-09-29T02:29:06;100006.97;;;8.26;98.84
64835;BME280;51293;59.296;18.006;2022-09-29T02:31:33;100006.63;;;8.23;99.02
64835;BME280;51293;59.296;18.006;2022-09-29T02:34:00;100012.69;;;8.18;99.20
64835;BME280;51293;59.296;18.006;2022-09-29T02:36:38;100008.25;;;8.12;99.29
64835;BME280;51293;59.296;18.006;2022-09-29T02:44:28;99996.75;;;8.05;99.72
64835;BME280;51293;59.296;18.006;2022-09-29T02:50:19;99991.59;;;8.03;99.41
64835;BME280;51293;59.296;18.006;2022-09-29T02:53:05;100003.97;;;7.93;99.79
64835;BME280;51293;59.296;18.006;2022-09-29T02:55:42;99999.53;;;7.86;99.99
64835;BME280;51293;59.296;18.006;2022-09-29T02:58:17;100003.84;;;7.87;100.00
64835;BME280;51293;59.296;18.006;2022-09-29T03:00:45;99997.16;;;7.90;100.00
64835;BME280;51293;59.296;18.006;2022-09-29T03:03:11;100006.66;;;7.93;100.00
64835;BME280;51293;59.296;18.006;2022-09-29T03:05:37;100007.97;;;7.90;100.00
64835;BME280;51293;59.296;18.006;2022-09-29T03:08:03;100001.28;;;7.93;100.00
64835;BME280;51293;59.296;18.006;2022-09-29T03:10:28;100013.13;;;7.92;100.00
64835;BME280;51293;59.296;18.006;2022-09-29T03:12:53;100011.00;;;7.94;100.00
64835;BME280;51293;59.296;18.006;2022-09-29T03:15:19;100005.59;;;7.94;100.00
64835;BME280;51293;59.296;18.006;2022-09-29T03:17:45;100008.31;;;7.94;100.00
64835;BME280;51293;59.296;18.006;2022-09-29T03:20:10;99996.84;;;7.98;100.00
64835;BME280;51293;59.296;18.006;2022-09-29T03:22:36;99991.69;;;7.97;100.00
64835;BME280;51293;59.296;18.006;2022-09-29T03:25:03;99999.78;;;7.97;100.00
64835;BME280;51293;59.296;18.006;2022-09-29T03:27:30;99992.13;;;7.94;100.00
64835;BME280;51293;59.296;18.006;2022-09-29T03:29:56;99993.78;;;7.95;100.00
64835;BME280;51293;59.296;18.006;2022-09-29T03:32:21;99999.53;;;7.86;100.00
64835;BME280;51293;59.296;18.006;2022-09-29T03:34:47;99997.03;;;7.85;100.00
64835;BME280;51293;59.296;18.006;2022-09-29T03:37:12;100000.53;;;7.85;100.00
64835;BME280;51293;59.296;18.006;2022-09-29T03:39:37;100003.38;;;7.79;100.00
64835;BME280;51293;59.296;18.006;2022-09-29T03:42:03;100011.06;;;7.75;100.00
64835;BME280;51293;59.296;18.006;2022-09-29T03:44:28;99999.72;;;7.73;100.00
64835;BME280;51293;59.296;18.006;2022-09-29T03:46:54;100009.09;;;7.71;100.00
64835;BME280;51293;59.296;18.006;2022-09-29T03:49:19;100003.69;;;7.71;99.90
64835;BME280;51293;59.296;18.006;2022-09-29T03:51:44;100003.78;;;7.64;99.80
64835;BME280;51293;59.296;18.006;2022-09-29T03:54:10;100000.94;;;7.59;100.00
64835;BME280;51293;59.296;18.006;2022-09-29T03:56:37;100003.03;;;7.57;100.00
64835;BME280;51293;59.296;18.006;2022-09-29T03:59:03;100004.19;;;7.49;100.00
64835;BME280;51293;59.296;18.006;2022-09-29T04:01:30;99996.34;;;7.48;100.00
64835;BME280;51293;59.296;18.006;2022-09-29T04:03:56;99996.56;;;7.46;100.00
64835;BME280;51293;59.296;18.006;2022-09-29T04:06:22;99990.78;;;7.43;100.00
64835;BME280;51293;59.296;18.006;2022-09-29T04:08:47;99987.28;;;7.42;100.00
64835;BME280;51293;59.296;18.006;2022-09-29T04:11:13;99989.97;;;7.42;100.00
64835;BME280;51293;59.296;18.006;2022-09-29T04:13:39;99991.25;;;7.40;100.00
64835;BME280;51293;59.296;18.006;2022-09-29T04:16:04;99999.03;;;7.48;100.00
64835;BME280;51293;59.296;18.006;2022-09-29T04:18:30;99990.94;;;7.48;100.00
64835;BME280;51293;59.296;18.006;2022-09-29T04:20:57;100002.31;;;7.50;100.00
64835;BME280;51293;59.296;18.006;2022-09-29T04:23:25;99996.34;;;7.48;100.00
64835;BME280;51293;59.296;18.006;2022-09-29T04:25:51;100000.19;;;7.52;99.78
64835;BME280;51293;59.296;18.006;2022-09-29T04:28:16;99998.56;;;7.51;99.68
64835;BME280;51293;59.296;18.006;2022-09-29T04:30:42;99997.97;;;7.49;99.60
64835;BME280;51293;59.296;18.006;2022-09-29T04:33:07;99995.03;;;7.50;99.48
64835;BME280;51293;59.296;18.006;2022-09-29T04:35:34;99990.63;;;7.56;99.18
64835;BME280;51293;59.296;18.006;2022-09-29T04:37:59;99991.53;;;7.50;99.22
64835;BME280;51293;59.296;18.006;2022-09-29T04:40:24;100003.38;;;7.49;99.41
64835;BME280;51293;59.296;18.006;2022-09-29T04:42:50;100002.31;;;7.50;99.55
64835;BME280;51293;59.296;18.006;2022-09-29T04:45:16;99995.63;;;7.52;99.54
64835;BME280;51293;59.296;18.006;2022-09-29T04:47:41;99992.25;;;7.57;99.67
64835;BME280;51293;59.296;18.006;2022-09-29T04:50:07;99990.84;;;7.54;99.35
64835;BME280;51293;59.296;18.006;2022-09-29T04:52:34;99998.81;;;7.61;99.21
64835;BME280;51293;59.296;18.006;2022-09-29T04:54:59;99993.31;;;7.56;99.36
64835;BME280;51293;59.296;18.006;2022-09-29T04:57:25;99997.19;;;7.60;99.38
64835;BME280;51293;59.296;18.006;2022-09-29T04:59:50;99990.63;;;7.56;99.19
64835;BME280;51293;59.296;18.006;2022-09-29T05:02:19;99984.66;;;7.54;99.19
64835;BME280;51293;59.296;18.006;2022-09-29T05:04:45;99989.41;;;7.52;99.20
64835;BME280;51293;59.296;18.006;2022-09-29T05:07:12;99992.72;;;7.54;99.14
64835;BME280;51293;59.296;18.006;2022-09-29T05:09:37;99991.28;;;7.51;99.24
64835;BME280;51293;59.296;18.006;2022-09-29T05:12:03;99997.88;;;7.55;99.14
64835;BME280;51293;59.296;18.006;2022-09-29T05:14:28;99987.78;;;7.51;99.27
64835;BME280;51293;59.296;18.006;2022-09-29T05:16:54;99992.72;;;7.54;99.29
64835;BME280;51293;59.296;18.006;2022-09-29T05:19:20;99992.25;;;7.57;99.17
64835;BME280;51293;59.296;18.006;2022-09-29T05:21:45;99986.28;;;7.55;99.15
64835;BME280;51293;59.296;18.006;2022-09-29T05:24:11;99987.22;;;7.60;99.20
64835;BME280;51293;59.296;18.006;2022-09-29T05:26:37;99984.53;;;7.60;99.28
64835;BME280;51293;59.296;18.006;2022-09-29T05:29:02;99983.84;;;7.65;99.06
64835;BME280;51293;59.296;18.006;2022-09-29T05:31:27;99981.00;;;7.60;99.16
64835;BME280;51293;59.296;18.006;2022-09-29T05:33:54;99991.94;;;7.65;98.75
64835;BME280;51293;59.296;18.006;2022-09-29T05:36:20;99984.19;;;7.69;99.40
64835;BME280;51293;59.296;18.006;2022-09-29T05:38:46;99984.13;;;7.75;99.21
64835;BME280;51293;59.296;18.006;2022-09-29T05:41:11;99978.38;;;7.72;99.33
64835;BME280;51293;59.296;18.006;2022-09-29T05:43:38;99973.56;;;7.74;99.38
64835;BME280;51293;59.296;18.006;2022-09-29T05:46:05;99980.75;;;7.80;99.29
64835;BME280;51293;59.296;18.006;2022-09-29T05:48:31;99983.19;;;7.81;99.35
64835;BME280;51293;59.296;18.006;2022-09-29T05:50:58;99978.41;;;7.83;99.57
64835;BME280;51293;59.296;18.006;2022-09-29T05:53:24;99986.63;;;7.88;99.11
64835;BME280;51293;59.296;18.006;2022-09-29T05:55:50;99986.84;;;7.87;99.03
64835;BME280;51293;59.296;18.006;2022-09-29T05:58:15;99984.38;;;7.85;99.00
64835;BME280;51293;59.296;18.006;2022-09-29T06:00:41;99980.75;;;7.92;98.51
64835;BME280;51293;59.296;18.006;2022-09-29T06:03:07;99981.09;;;7.83;98.43
64835;BME280;51293;59.296;18.006;2022-09-29T06:05:32;99988.13;;;7.84;98.40
64835;BME280;51293;59.296;18.006;2022-09-29T06:08:02;99983.69;;;7.90;98.08
64835;BME280;51293;59.296;18.006;2022-09-29T06:10:28;99976.66;;;7.89;97.90
64835;BME280;51293;59.296;18.006;2022-09-29T06:12:53;99971.25;;;7.89;97.35
64835;BME280;51293;59.296;18.006;2022-09-29T06:15:18;99988.34;;;7.83;97.33
64835;BME280;51293;59.296;18.006;2022-09-29T06:17:44;99982.50;;;7.86;97.40
64835;BME280;51293;59.296;18.006;2022-09-29T06:20:09;99975.69;;;7.83;97.01
64835;BME280;51293;59.296;18.006;2022-09-29T06:22:35;99973.38;;;7.87;96.92
64835;BME280;51293;59.296;18.006;2022-09-29T06:25:00;99973.38;;;7.87;97.27
64835;BME280;51293;59.296;18.006;2022-09-29T06:27:25;99985.56;;;7.89;97.36
64835;BME280;51293;59.296;18.006;2022-09-29T06:29:51;99987.84;;;8.04;97.19
64835;BME280;51293;59.296;18.006;2022-09-29T06:32:16;99978.56;;;8.12;96.92
64835;BME280;51293;59.296;18.006;2022-09-29T06:34:42;99981.28;;;8.12;96.50
64835;BME280;51293;59.296;18.006;2022-09-29T06:37:30;99987.50;;;8.24;96.35
64835;BME280;51293;59.296;18.006;2022-09-29T06:39:59;99980.47;;;8.23;95.72
64835;BME280;51293;59.296;18.006;2022-09-29T06:42:24;99982.91;;;8.25;95.53
64835;BME280;51293;59.296;18.006;2022-09-29T06:44:50;99980.59;;;8.28;95.22
64835;BME280;51293;59.296;18.006;2022-09-29T06:47:15;99975.09;;;8.35;95.15
64835;BME280;51293;59.296;18.006;2022-09-29T06:49:41;99981.31;;;8.35;94.51
64835;BME280;51293;59.296;18.006;2022-09-29T06:52:07;99976.28;;;8.39;94.68
64835;BME280;51293;59.296;18.006;2022-09-29T06:54:32;99974.97;;;8.41;95.02
64835;BME280;51293;59.296;18.006;2022-09-29T06:56:58;99974.63;;;8.50;95.14
64835;BME280;51293;59.296;18.006;2022-09-29T06:59:25;99981.53;;;8.57;94.65
64835;BME280;51293;59.296;18.006;2022-09-29T07:01:50;99980.84;;;8.62;94.43
64835;BME280;51293;59.296;18.006;2022-09-29T07:04:16;99979.88;;;8.68;93.85
64835;BME280;51293;59.296;18.006;2022-09-29T07:06:41;99973.66;;;8.67;93.38
64835;BME280;51293;59.296;18.006;2022-09-29T07:09:07;99985.53;;;8.78;92.86
64835;BME280;51293;59.296;18.006;2022-09-29T07:11:34;99989.88;;;8.79;92.04
64835;BME280;51293;59.296;18.006;2022-09-29T07:14:00;99978.50;;;8.77;92.78
64835;BME280;51293;59.296;18.006;2022-09-29T07:16:25;99984.94;;;8.76;92.67
64835;BME280;51293;59.296;18.006;2022-09-29T07:18:51;99977.28;;;8.85;92.34
64835;BME280;51293;59.296;18.006;2022-09-29T07:21:17;99976.81;;;8.88;92.10
64835;BME280;51293;59.296;18.006;2022-09-29T07:23:43;99988.22;;;8.90;91.06
64835;BME280;51293;59.296;18.006;2022-09-29T07:26:10;99978.72;;;8.87;90.48
64835;BME280;51293;59.296;18.006;2022-09-29T07:28:36;99986.81;;;8.87;90.48
64835;BME280;51293;59.296;18.006;2022-09-29T07:33:29;99982.94;;;8.83;90.64
64835;BME280;51293;59.296;18.006;2022-09-29T07:35:55;99986.00;;;8.87;90.56
64835;BME280;51293;59.296;18.006;2022-09-29T07:38:22;99991.16;;;8.88;90.28
64835;BME280;51293;59.296;18.006;2022-09-29T07:40:47;99987.06;;;8.86;90.07
64835;BME280;51293;59.296;18.006;2022-09-29T07:43:13;99993.38;;;8.91;90.68
64835;BME280;51293;59.296;18.006;2022-09-29T07:45:38;99993.47;;;8.96;90.62
64835;BME280;51293;59.296;18.006;2022-09-29T07:48:08;99998.16;;;9.01;90.44
64835;BME280;51293;59.296;18.006;2022-09-29T07:50:34;100000.97;;;9.06;90.04
64835;BME280;51293;59.296;18.006;2022-09-29T07:52:59;99999.91;;;9.07;89.60
64835;BME280;51293;59.296;18.006;2022-09-29T07:55:25;100004.25;;;9.08;89.68
64835;BME280;51293;59.296;18.006;2022-09-29T07:57:51;100006.72;;;9.10;89.91
64835;BME280;51293;59.296;18.006;2022-09-29T08:00:17;100000.28;;;9.11;90.07
64835;BME280;51293;59.296;18.006;2022-09-29T08:02:42;100005.19;;;9.14;89.67
64835;BME280;51293;59.296;18.006;2022-09-29T08:05:08;100000.94;;;9.18;88.81
64835;BME280;51293;59.296;18.006;2022-09-29T08:07:34;100003.88;;;9.28;88.73
64835;BME280;51293;59.296;18.006;2022-09-29T08:09:59;100008.97;;;9.41;88.01
64835;BME280;51293;59.296;18.006;2022-09-29T08:12:25;100009.16;;;9.51;87.80
64835;BME280;51293;59.296;18.006;2022-09-29T08:14:51;100010.22;;;9.62;87.59
64835;BME280;51293;59.296;18.006;2022-09-29T08:17:16;100004.41;;;9.70;86.93
64835;BME280;51293;59.296;18.006;2022-09-29T08:19:42;100006.38;;;9.75;86.09
64835;BME280;51293;59.296;18.006;2022-09-29T08:22:07;100008.22;;;9.86;85.64
64835;BME280;51293;59.296;18.006;2022-09-29T08:24:33;100003.19;;;9.78;84.87
64835;BME280;51293;59.296;18.006;2022-09-29T08:27:01;100003.91;;;9.73;85.76
64835;BME280;51293;59.296;18.006;2022-09-29T08:29:26;100000.38;;;9.73;85.50
64835;BME280;51293;59.296;18.006;2022-09-29T08:31:52;100008.72;;;9.54;87.00
64835;BME280;51293;59.296;18.006;2022-09-29T08:34:19;100008.84;;;9.48;86.54
64835;BME280;51293;59.296;18.006;2022-09-29T08:36:45;100003.75;;;9.51;85.79
64835;BME280;51293;59.296;18.006;2022-09-29T08:39:11;100007.88;;;9.54;85.80
64835;BME280;51293;59.296;18.006;2022-09-29T08:44:46;100013.28;;;9.54;85.77
64835;BME280;51293;59.296;18.006;2022-09-29T08:47:28;100006.69;;;9.62;86.29
64835;BME280;51293;59.296;18.006;2022-09-29T08:49:58;100005.13;;;9.66;85.74
64835;BME280;51293;59.296;18.006;2022-09-29T08:52:37;100010.38;;;9.72;85.57
64835;BME280;51293;59.296;18.006;2022-09-29T08:57:43;100009.28;;;9.85;85.22
64835;BME280;51293;59.296;18.006;2022-09-29T09:00:12;100009.75;;;9.82;85.89
64835;BME280;51293;59.296;18.006;2022-09-29T09:08:09;100010.00;;;9.80;84.74
64835;BME280;51293;59.296;18.006;2022-09-29T09:10:44;100015.16;;;9.82;85.19
64835;BME280;51293;59.296;18.006;2022-09-29T09:13:32;100008.09;;;9.81;85.59
64835;BME280;51293;59.296;18.006;2022-09-29T09:21:18;100006.75;;;9.95;85.20
64835;BME280;51293;59.296;18.006;2022-09-29T09:23:55;100009.06;;;10.03;84.21
64835;BME280;51293;59.296;18.006;2022-09-29T09:26:41;100011.19;;;10.01;84.22
64835;BME280;51293;59.296;18.006;2022-09-29T09:29:21;100012.91;;;10.07;82.94
64835;BME280;51293;59.296;18.006;2022-09-29T09:34:56;100006.59;;;10.19;82.21
64835;BME280;51293;59.296;18.006;2022-09-29T09:37:26;100008.50;;;10.18;82.19
64835;BME280;51293;59.296;18.006;2022-09-29T09:40:13;100011.44;;;10.17;82.16
64835;BME280;51293;59.296;18.006;2022-09-29T09:42:43;99994.63;;;10.14;82.45
64835;BME280;51293;59.296;18.006;2022-09-29T09:45:30;100010.69;;;10.21;82.11
64835;BME280;51293;59.296;18.006;2022-09-29T09:48:29;100004.56;;;10.26;82.78
64835;BME280;51293;59.296;18.006;2022-09-29T09:51:00;100010.56;;;10.45;82.00
64835;BME280;51293;59.296;18.006;2022-09-29T09:53:34;100010.94;;;10.70;81.19
64835;BME280;51293;59.296;18.006;2022-09-29T09:56:23;100006.44;;;10.97;79.64
64835;BME280;51293;59.296;18.006;2022-09-29T09:59:29;100013.34;;;11.27;78.76
64835;BME280;51293;59.296;18.006;2022-09-29T10:01:57;100014.84;;;11.40;77.03
64835;BME280;51293;59.296;18.006;2022-09-29T10:04:22;100015.66;;;11.40;76.00
64835;BME280;51293;59.296;18.006;2022-09-29T10:06:50;100013.31;;;11.49;75.24
64835;BME280;51293;59.296;18.006;2022-09-29T10:09:16;100012.75;;;11.47;75.27
64835;BME280;51293;59.296;18.006;2022-09-29T10:11:42;100016.72;;;11.39;75.17
64835;BME280;51293;59.296;18.006;2022-09-29T10:14:15;100024.69;;;11.46;75.41
64835;BME280;51293;59.296;18.006;2022-09-29T10:16:49;100028.41;;;11.40;74.71
64835;BME280;51293;59.296;18.006;2022-09-29T10:19:22;100021.41;;;11.44;75.14
64835;BME280;51293;59.296;18.006;2022-09-29T10:21:48;100019.78;;;11.43;74.85
64835;BME280;51293;59.296;18.006;2022-09-29T10:24:27;100017.09;;;11.48;75.55
64835;BME280;51293;59.296;18.006;2022-09-29T10:26:57;100023.72;;;11.57;74.17
64835;BME280;51293;59.296;18.006;2022-09-29T10:32:01;100019.25;;;11.68;72.73
64835;BME280;51293;59.296;18.006;2022-09-29T10:34:27;100014.38;;;11.70;72.49
64835;BME280;51293;59.296;18.006;2022-09-29T10:37:16;100018.63;;;11.61;71.97
64835;BME280;51293;59.296;18.006;2022-09-29T10:39:45;100019.91;;;11.58;71.24
64835;BME280;51293;59.296;18.006;2022-09-29T10:42:34;100022.63;;;11.58;71.17
64835;BME280;51293;59.296;18.006;2022-09-29T10:47:31;100020.06;;;11.68;71.25
64835;BME280;51293;59.296;18.006;2022-09-29T10:50:18;100017.13;;;11.75;70.44
64835;BME280;51293;59.296;18.006;2022-09-29T10:55:20;100026.72;;;11.82;69.24
64835;BME280;51293;59.296;18.006;2022-09-29T10:57:46;100021.66;;;11.91;68.75
64835;BME280;51293;59.296;18.006;2022-09-29T11:00:31;100021.97;;;11.95;68.31
64835;BME280;51293;59.296;18.006;2022-09-29T11:03:18;100023.91;;;11.99;65.95
64835;BME280;51293;59.296;18.006;2022-09-29T11:06:07;100018.81;;;12.03;66.62
64835;BME280;51293;59.296;18.006;2022-09-29T11:09:36;100017.19;;;12.07;66.55
64835;BME280;51293;59.296;18.006;2022-09-29T11:14:40;100023.09;;;12.26;66.82
64835;BME280;51293;59.296;18.006;2022-09-29T11:19:45;100019.88;;;12.02;65.38
64835;BME280;51293;59.296;18.006;2022-09-29T11:39:48;100002.63;;;12.92;61.98
64835;BME280;51293;59.296;18.006;2022-09-29T11:45:02;99995.25;;;12.83;62.14
64835;BME280;51293;59.296;18.006;2022-09-29T11:47:43;99994.22;;;12.94;61.42
64835;BME280;51293;59.296;18.006;2022-09-29T11:50:48;100004.22;;;12.83;60.66
64835;BME280;51293;59.296;18.006;2022-09-29T11:53:35;100001.41;;;12.68;61.81
64835;BME280;51293;59.296;18.006;2022-09-29T12:17:08;100018.88;;;11.59;64.73
64835;BME280;51293;59.296;18.006;2022-09-29T12:19:37;100016.84;;;11.49;65.48
64835;BME280;51293;59.296;18.006;2022-09-29T12:22:08;100019.41;;;11.34;66.86
64835;BME280;51293;59.296;18.006;2022-09-29T12:24:37;100016.00;;;11.44;66.71
64835;BME280;51293;59.296;18.006;2022-09-29T12:27:27;100021.34;;;11.39;65.59
64835;BME280;51293;59.296;18.006;2022-09-29T12:30:22;100025.13;;;11.38;66.01
64835;BME280;51293;59.296;18.006;2022-09-29T12:33:04;100024.00;;;11.34;65.60
64835;BME280;51293;59.296;18.006;2022-09-29T12:35:41;100026.03;;;11.43;65.45
64835;BME280;51293;59.296;18.006;2022-09-29T12:38:26;100032.00;;;11.45;65.52
64835;BME280;51293;59.296;18.006;2022-09-29T12:44:13;100033.25;;;11.38;66.36
64835;BME280;51293;59.296;18.006;2022-09-29T12:46:47;100037.44;;;11.45;66.37
64835;BME280;51293;59.296;18.006;2022-09-29T12:49:47;100033.19;;;11.54;64.70
64835;BME280;51293;59.296;18.006;2022-09-29T12:52:24;100027.84;;;11.38;64.88
64835;BME280;51293;59.296;18.006;2022-09-29T12:54:58;100027.97;;;11.26;64.32
64835;BME280;51293;59.296;18.006;2022-09-29T12:57:46;100033.88;;;11.23;64.65
64835;BME280;51293;59.296;18.006;2022-09-29T13:00:15;100033.78;;;11.35;64.32
64835;BME280;51293;59.296;18.006;2022-09-29T13:11:17;100024.13;;;11.22;62.09
64835;BME280;51293;59.296;18.006;2022-09-29T13:24:35;100043.66;;;11.46;62.52
64835;BME280;51293;59.296;18.006;2022-09-29T13:27:37;100040.50;;;11.76;61.52
64835;BME280;51293;59.296;18.006;2022-09-29T13:33:08;100045.66;;;11.77;61.24
64835;BME280;51293;59.296;18.006;2022-09-29T13:35:43;100040.28;;;11.82;62.58
64835;BME280;51293;59.296;18.006;2022-09-29T13:38:18;100038.47;;;11.88;62.60
64835;BME280;51293;59.296;18.006;2022-09-29T13:41:08;100036.06;;;11.92;63.47
64835;BME280;51293;59.296;18.006;2022-09-29T13:51:42;100043.00;;;11.82;61.17
64835;BME280;51293;59.296;18.006;2022-09-29T13:54:17;100043.13;;;11.71;60.71
64835;BME280;51293;59.296;18.006;2022-09-29T13:57:31;100044.34;;;11.80;61.57
64835;BME280;51293;59.296;18.006;2022-09-29T13:59:32;100046.31;;;11.63;61.23
64835;BME280;51293;59.296;18.006;2022-09-29T14:01:58;100042.50;;;11.64;62.47
64835;BME280;51293;59.296;18.006;2022-09-29T14:10:50;100041.34;;;12.35;58.39
64835;BME280;51293;59.296;18.006;2022-09-29T14:13:10;100039.84;;;12.50;58.37
64835;BME280;51293;59.296;18.006;2022-09-29T14:15:44;100042.44;;;12.72;57.34
64835;BME280;51293;59.296;18.006;2022-09-29T14:18:29;100050.25;;;12.31;58.39
64835;BME280;51293;59.296;18.006;2022-09-29T14:21:02;100048.59;;;12.25;58.57
64835;BME280;51293;59.296;18.006;2022-09-29T14:26:48;100051.09;;;11.77;59.20
64835;BME280;51293;59.296;18.006;2022-09-29T14:29:26;100059.75;;;11.31;59.94
64835;BME280;51293;59.296;18.006;2022-09-29T14:31:55;100048.03;;;11.08;60.28
64835;BME280;51293;59.296;18.006;2022-09-29T14:34:25;100062.88;;;10.84;61.26
64835;BME280;51293;59.296;18.006;2022-09-29T14:36:53;100055.09;;;10.71;62.02
64835;BME280;51293;59.296;18.006;2022-09-29T14:39:21;100050.03;;;10.57;62.89
64835;BME280;51293;59.296;18.006;2022-09-29T14:41:48;100056.09;;;10.48;63.20
64835;BME280;51293;59.296;18.006;2022-09-29T14:44:24;100065.53;;;10.28;64.98
64835;BME280;51293;59.296;18.006;2022-09-29T14:47:09;100062.25;;;10.26;64.48
64835;BME280;51293;59.296;18.006;2022-09-29T15:01:35;100069.03;;;10.00;65.98
64835;BME280;51293;59.296;18.006;2022-09-29T15:03:47;100069.78;;;9.96;66.47
64835;BME280;51293;59.296;18.006;2022-09-29T15:06:21;100073.56;;;9.95;66.93
64835;BME280;51293;59.296;18.006;2022-09-29T15:11:35;100071.50;;;9.85;66.40
64835;BME280;51293;59.296;18.006;2022-09-29T15:14:20;100075.59;;;9.88;66.43
64835;BME280;51293;59.296;18.006;2022-09-29T15:19:49;100081.38;;;9.79;67.21
64835;BME280;51293;59.296;18.006;2022-09-29T15:22:32;100086.69;;;9.74;67.41
64835;BME280;51293;59.296;18.006;2022-09-29T15:25:41;100079.06;;;9.71;68.43
64835;BME280;51293;59.296;18.006;2022-09-29T15:28:17;100084.59;;;9.65;67.68
64835;BME280;51293;59.296;18.006;2022-09-29T15:30:44;100086.72;;;9.63;68.11
64835;BME280;51293;59.296;18.006;2022-09-29T15:33:20;100092.16;;;9.51;68.23
64835;BME280;51293;59.296;18.006;2022-09-29T15:35:55;100090.19;;;9.46;67.68
64835;BME280;51293;59.296;18.006;2022-09-29T15:40:56;100092.31;;;9.33;68.35
64835;BME280;51293;59.296;18.006;2022-09-29T15:43:30;100096.31;;;9.30;69.07
64835;BME280;51293;59.296;18.006;2022-09-29T15:46:17;100083.41;;;9.20;68.83
64835;BME280;51293;59.296;18.006;2022-09-29T15:49:09;100094.34;;;9.14;68.97